Rechercher aéroport 
image banner adimage banner ad
image banner ad

SJBW - Fazenda Barbacena Airport

Situé à São Pedro Do Ivaí, Brazil

ICAO - SJBW, IATA -

Données fournies par Airmate  

Information générale

Coordonnées: S29°43'59" W51°12'35"
Élévation : 26 feet MSL.
Variation magnétique : -17° East
Voir autres Aéroports à Rio Grande do Sul

Données opérationnelles

Accessible au public
Heure actuelle UTC:
Heure actuelle locale:
Météo à : SBCO - Canoas Airport ( 24 km )
METAR: SBCO 301500Z 35007KT 5000 -TSRA FEW035CB BKN100 21/20 Q1010
TAF: TAF SBCO 300900Z 3012/3024 36007KT 6000 TSRA SCT035 FEW045CB TN20/3012Z TX24/3018Z BECMG 3018/3020 08006KT CAVOK RMK PED
Voir NOTAMs / SUP AIP / TFR affectant cet aéroport [VIEW]
Fréquences de communication: [VIEW]

Pistes:

Identifiant RWYQFULongueur (ft)Largeur (ft)SurfaceLDA (ft)
01262159GRASS
19262159GRASS

Coordonnées de l'aéroport

Adresse: São Pedro Do Ivaí Brazil

Vue satellite de SJBW